Time;durP1;ratioP1;P1;durP2;ratioP2;P2;SDS_P1;SDS_P2;PMS_P1;PMS_P2;Temp;Humidity;BMP_temperature;BMP_pressure;BME280_temperature;BME280_humidity;BME280_pressure;Samples;Min_cycle;Max_cycle;Signal;HPM_P1;HPM_P2
2023/01/19 00:01:31;;;;;;;;;;;;;;;26.12;51.92;95801.14;626017;226;65255;-68
2023/01/19 00:03:58;;;;;;;;;;;;;;;26.13;51.15;95807.30;625998;226;66628;-68
2023/01/19 00:06:26;;;;;;;;;;;;;;;26.12;51.65;95811.13;625962;226;66494;-68
2023/01/19 00:08:54;;;;;;;;;;;;;;;26.12;51.57;95816.52;625937;226;65084;-68
2023/01/19 00:11:21;;;;;;;;;;;;;;;26.11;52.44;95813.03;625960;226;64473;-68
2023/01/19 00:13:49;;;;;;;;;;;;;;;26.10;51.71;95811.45;625954;226;64452;-68
2023/01/19 00:16:17;;;;;;;;;;;;;;;26.09;50.73;95809.88;626031;226;65039;-68
2023/01/19 00:18:49;;;;;;;;;;;;;;;26.10;52.51;95816.05;625980;226;66499;-68
2023/01/19 00:21:17;;;;;;;;;;;;;;;26.09;51.60;95811.80;625917;226;66559;-68
2023/01/19 00:23:51;;;;;;;;;;;;;;;26.09;51.14;95792.95;625968;226;62886;-68
2023/01/19 00:26:15;;;;;;;;;;;;;;;26.08;52.54;95796.74;625537;226;64410;-68
2023/01/19 00:28:43;;;;;;;;;;;;;;;26.07;52.77;95784.41;625968;226;66555;-68
2023/01/19 00:31:11;;;;;;;;;;;;;;;26.06;52.31;95810.55;625938;226;65533;-68
2023/01/19 00:33:39;;;;;;;;;;;;;;;26.06;52.63;95809.77;625936;226;64442;-68
2023/01/19 00:36:06;;;;;;;;;;;;;;;26.05;51.54;95818.95;625881;226;67043;-68
2023/01/19 00:38:34;;;;;;;;;;;;;;;26.04;52.80;95802.02;625918;226;64960;-67
2023/01/19 00:41:01;;;;;;;;;;;;;;;26.04;52.35;95801.23;626004;226;66854;-67
2023/01/19 00:43:29;;;;;;;;;;;;;;;26.03;52.68;95802.36;625953;226;66929;-68
2023/01/19 00:45:56;;;;;;;;;;;;;;;26.02;51.62;95820.40;625943;226;65035;-68
2023/01/19 00:48:24;;;;;;;;;;;;;;;26.03;52.03;95832.77;625934;226;66863;-68
2023/01/19 00:50:51;;;;;;;;;;;;;;;26.03;52.42;95815.83;625997;226;66764;-68
2023/01/19 00:53:19;;;;;;;;;;;;;;;26.02;52.31;95825.00;626023;226;65035;-68
2023/01/19 00:55:46;;;;;;;;;;;;;;;26.01;52.28;95818.84;625966;226;66666;-68
2023/01/19 00:58:14;;;;;;;;;;;;;;;26.01;51.91;95823.44;625957;226;66927;-68
2023/01/19 01:00:41;;;;;;;;;;;;;;;25.99;51.66;95822.98;625951;226;64938;-68
2023/01/19 01:03:09;;;;;;;;;;;;;;;26.00;53.17;95829.92;625919;226;64987;-68
2023/01/19 01:05:38;;;;;;;;;;;;;;;25.98;52.79;95829.48;625981;226;64735;-68
2023/01/19 01:08:05;;;;;;;;;;;;;;;25.98;52.11;95834.88;626000;226;62889;-68
2023/01/19 01:10:33;;;;;;;;;;;;;;;25.97;51.36;95841.36;625979;226;67644;-68
2023/01/19 01:13:00;;;;;;;;;;;;;;;25.97;52.08;95835.97;625961;226;66792;-68
2023/01/19 01:15:28;;;;;;;;;;;;;;;25.95;52.35;95833.63;625930;226;65001;-68
2023/01/19 01:17:56;;;;;;;;;;;;;;;25.95;51.63;95836.32;625960;226;64964;-68
2023/01/19 01:20:26;;;;;;;;;;;;;;;25.95;51.27;95849.00;625978;226;65001;-68
2023/01/19 01:22:54;;;;;;;;;;;;;;;25.95;51.89;95862.45;625948;226;65004;-68
2023/01/19 01:25:23;;;;;;;;;;;;;;;25.93;52.06;95854.70;625922;226;65106;-68
2023/01/19 01:27:50;;;;;;;;;;;;;;;25.92;51.46;95850.45;625917;226;67038;-68
2023/01/19 01:30:19;;;;;;;;;;;;;;;25.90;51.03;95864.22;625922;226;65031;-68
2023/01/19 01:32:46;;;;;;;;;;;;;;;25.91;52.55;95857.70;625947;226;67160;-68
2023/01/19 01:35:14;;;;;;;;;;;;;;;25.90;52.32;95855.37;625957;226;67044;-68
2023/01/19 01:37:42;;;;;;;;;;;;;;;25.90;51.45;95858.06;625528;226;65029;-68
2023/01/19 01:40:11;;;;;;;;;;;;;;;25.89;51.62;95843.01;624814;227;67222;-68
2023/01/19 01:42:39;;;;;;;;;;;;;;;25.89;51.48;95824.16;624726;226;66603;-68
2023/01/19 01:45:08;;;;;;;;;;;;;;;25.88;52.95;95831.45;624863;227;65237;-69
2023/01/19 01:47:40;;;;;;;;;;;;;;;25.87;51.21;95834.50;624536;226;64920;-68
2023/01/19 01:50:09;;;;;;;;;;;;;;;25.87;51.33;95829.12;624726;226;67292;-68
2023/01/19 01:52:38;;;;;;;;;;;;;;;25.85;51.18;95836.73;624795;227;64902;-68
2023/01/19 01:55:06;;;;;;;;;;;;;;;25.84;51.22;95835.16;624779;227;64992;-67
2023/01/19 01:57:38;;;;;;;;;;;;;;;25.83;51.93;95839.73;624778;227;67038;-67
2023/01/19 02:00:06;;;;;;;;;;;;;;;25.82;51.49;95822.00;624847;227;62686;-67
2023/01/19 02:02:50;;;;;;;;;;;;;;;25.82;51.66;95819.30;624807;227;67951;-67
2023/01/19 02:05:20;;;;;;;;;;;;;;;25.82;52.89;95830.06;624802;227;67780;-68
2023/01/19 02:13:24;;;;;;;;;;;;;;;25.79;51.77;95814.59;624785;227;64872;-67
2023/01/19 02:15:53;;;;;;;;;;;;;;;25.79;50.78;95838.02;624741;227;65361;-68
2023/01/19 02:18:22;;;;;;;;;;;;;;;25.77;50.92;95824.11;624820;227;67413;-68
2023/01/19 02:21:08;;;;;;;;;;;;;;;25.78;51.23;95820.28;624818;227;66841;-67
2023/01/19 02:23:37;;;;;;;;;;;;;;;25.78;51.38;95834.55;624789;227;65430;-67
2023/01/19 02:26:06;;;;;;;;;;;;;;;25.76;51.36;95841.38;624796;227;67151;-68
2023/01/19 02:28:33;;;;;;;;;;;;;;;25.75;51.24;95821.73;624727;227;67040;-68
2023/01/19 02:31:01;;;;;;;;;;;;;;;25.74;51.41;95828.24;624795;227;62809;-68
2023/01/19 02:33:28;;;;;;;;;;;;;;;25.74;50.94;95824.77;624868;227;64880;-67
2023/01/19 02:35:56;;;;;;;;;;;;;;;25.73;51.28;95820.48;624797;227;64953;-67
2023/01/19 02:38:25;;;;;;;;;;;;;;;25.73;50.64;95840.13;625449;226;62866;-67
2023/01/19 02:40:54;;;;;;;;;;;;;;;25.73;51.73;95829.38;625858;226;64998;-67
2023/01/19 02:43:23;;;;;;;;;;;;;;;25.72;51.59;95832.37;625940;226;66835;-67
2023/01/19 02:45:50;;;;;;;;;;;;;;;25.71;52.27;95828.12;625913;226;65038;-67
2023/01/19 02:48:20;;;;;;;;;;;;;;;25.69;51.51;95821.15;625989;226;67199;-67
2023/01/19 02:50:49;;;;;;;;;;;;;;;25.69;51.71;95841.89;625951;226;66981;-67
2023/01/19 02:53:18;;;;;;;;;;;;;;;25.68;52.92;95833.05;625690;226;62992;-67
2023/01/19 02:55:47;;;;;;;;;;;;;;;25.67;52.32;95842.24;625912;226;65664;-67
2023/01/19 02:58:16;;;;;;;;;;;;;;;25.67;51.08;95849.50;625816;226;67007;-68
2023/01/19 03:00:48;;;;;;;;;;;;;;;25.67;52.14;95838.73;625931;225;65027;-68
2023/01/19 03:03:29;;;;;;;;;;;;;;;25.66;52.04;95851.41;625804;226;67209;-68
2023/01/19 03:05:58;;;;;;;;;;;;;;;25.65;52.59;95847.16;625782;226;65388;-69
2023/01/19 03:08:27;;;;;;;;;;;;;;;25.65;52.82;95851.76;625845;226;63045;-68
2023/01/19 03:11:05;;;;;;;;;;;;;;;25.64;51.54;95863.61;625922;226;64969;-68
2023/01/19 03:13:46;;;;;;;;;;;;;;;25.63;51.23;95849.38;625915;226;66844;-69
2023/01/19 03:16:21;;;;;;;;;;;;;;;25.63;50.97;95845.91;625922;225;62854;-68
2023/01/19 03:18:53;;;;;;;;;;;;;;;25.63;53.05;95848.60;625996;226;67560;-68
2023/01/19 03:21:22;;;;;;;;;;;;;;;25.61;52.51;95842.75;625921;226;64838;-68
2023/01/19 03:23:50;;;;;;;;;;;;;;;25.59;52.42;95839.59;625930;225;67599;-68
2023/01/19 03:26:19;;;;;;;;;;;;;;;25.59;51.00;95850.36;625951;226;64592;-68
2023/01/19 03:28:48;;;;;;;;;;;;;;;25.59;50.48;95842.28;625885;226;64664;-68
2023/01/19 03:31:17;;;;;;;;;;;;;;;25.58;51.69;95851.48;625949;226;65033;-68
2023/01/19 03:33:46;;;;;;;;;;;;;;;25.58;51.46;95864.94;625828;226;65082;-68
2023/01/19 03:36:21;;;;;;;;;;;;;;;25.58;52.43;95838.03;625848;225;64791;-67
2023/01/19 03:38:50;;;;;;;;;;;;;;;25.57;52.62;95844.54;625837;226;64910;-67
2023/01/19 03:41:19;;;;;;;;;;;;;;;25.56;52.15;95867.94;625864;226;64926;-68
2023/01/19 03:43:49;;;;;;;;;;;;;;;25.55;52.02;95841.38;625945;226;66982;-68
2023/01/19 03:46:17;;;;;;;;;;;;;;;25.55;51.97;95850.23;625982;226;65024;-67
2023/01/19 03:48:45;;;;;;;;;;;;;;;25.54;52.67;95829.06;625910;226;65149;-68
2023/01/19 03:51:13;;;;;;;;;;;;;;;25.53;51.60;95830.16;625921;226;67203;-68
2023/01/19 03:53:41;;;;;;;;;;;;;;;25.52;51.87;95839.36;625935;226;65019;-68
2023/01/19 03:56:23;;;;;;;;;;;;;;;25.52;52.78;95842.05;625823;226;65848;-67
2023/01/19 03:58:51;;;;;;;;;;;;;;;25.51;52.22;95843.14;625976;226;65027;-68
2023/01/19 04:01:22;;;;;;;;;;;;;;;25.49;52.29;95824.66;625915;226;63070;-68
2023/01/19 04:03:50;;;;;;;;;;;;;;;25.50;52.03;95846.96;625925;226;65008;-67
2023/01/19 04:06:18;;;;;;;;;;;;;;;25.49;52.04;95824.66;625906;226;64991;-67
2023/01/19 04:08:47;;;;;;;;;;;;;;;25.48;52.07;95839.20;625903;226;63034;-67
2023/01/19 04:11:15;;;;;;;;;;;;;;;25.47;51.91;95826.88;625900;226;67009;-68
2023/01/19 04:13:43;;;;;;;;;;;;;;;25.46;52.21;95853.00;626019;226;66505;-68
2023/01/19 04:16:11;;;;;;;;;;;;;;;25.44;51.69;95817.56;625946;226;64889;-68
2023/01/19 04:18:38;;;;;;;;;;;;;;;25.45;52.63;95831.80;625928;226;66874;-68
2023/01/19 04:21:07;;;;;;;;;;;;;;;25.44;52.81;95852.53;625878;226;66675;-68
2023/01/19 04:23:34;;;;;;;;;;;;;;;25.44;52.37;95843.68;625910;226;65130;-68
2023/01/19 04:26:03;;;;;;;;;;;;;;;25.43;52.00;95831.36;625982;226;66681;-68
2023/01/19 04:28:32;;;;;;;;;;;;;;;25.43;52.13;95852.88;625936;226;64610;-67
2023/01/19 04:31:00;;;;;;;;;;;;;;;25.42;51.99;95841.30;625943;226;65033;-67
2023/01/19 04:33:27;;;;;;;;;;;;;;;25.41;51.60;95861.26;625920;226;66894;-68
2023/01/19 04:35:55;;;;;;;;;;;;;;;25.40;52.07;95857.00;625930;226;67109;-67
2023/01/19 04:38:24;;;;;;;;;;;;;;;25.40;51.31;95867.77;625947;226;64904;-67
2023/01/19 04:40:52;;;;;;;;;;;;;;;25.39;52.16;95850.03;625942;226;66571;-67
2023/01/19 04:43:20;;;;;;;;;;;;;;;25.40;52.21;95885.78;625912;226;64841;-68
2023/01/19 04:45:48;;;;;;;;;;;;;;;25.38;51.05;95856.53;625875;226;63003;-68
2023/01/19 04:48:17;;;;;;;;;;;;;;;25.37;52.69;95846.91;625890;226;67502;-67
2023/01/19 04:50:44;;;;;;;;;;;;;;;25.36;51.85;95837.24;625905;226;65162;-68
2023/01/19 04:53:12;;;;;;;;;;;;;;;25.36;51.73;95861.45;625958;226;63031;-67
2023/01/19 04:55:40;;;;;;;;;;;;;;;25.35;52.51;95846.44;625908;226;67221;-67
2023/01/19 04:58:07;;;;;;;;;;;;;;;25.34;52.17;95852.91;625921;226;67024;-67
2023/01/19 05:00:35;;;;;;;;;;;;;;;25.34;52.68;95866.36;625890;226;65023;-67
2023/01/19 05:03:03;;;;;;;;;;;;;;;25.33;53.02;95851.34;625932;226;67222;-67
2023/01/19 05:05:32;;;;;;;;;;;;;;;25.33;52.06;95854.03;625968;226;64961;-68
2023/01/19 05:07:59;;;;;;;;;;;;;;;25.32;52.22;95873.98;625918;226;64994;-68
2023/01/19 05:10:27;;;;;;;;;;;;;;;25.32;52.60;95849.78;625855;226;67243;-67
2023/01/19 05:12:54;;;;;;;;;;;;;;;25.32;52.03;95873.98;625906;226;67159;-68
2023/01/19 05:15:22;;;;;;;;;;;;;;;25.30;52.90;95860.07;625900;226;65008;-67
2023/01/19 05:17:50;;;;;;;;;;;;;;;25.30;52.08;95868.14;625905;226;67152;-67
2023/01/19 05:20:17;;;;;;;;;;;;;;;25.30;52.75;95864.67;625908;226;64797;-68
2023/01/19 05:22:52;;;;;;;;;;;;;;;25.27;52.00;95866.11;625887;226;65246;-67
2023/01/19 05:25:19;;;;;;;;;;;;;;;25.28;53.41;95872.27;625875;226;67285;-67
2023/01/19 05:27:47;;;;;;;;;;;;;;;25.27;53.82;95841.91;625899;226;64613;-68
2023/01/19 05:30:15;;;;;;;;;;;;;;;25.25;51.65;95857.57;625852;226;64872;-68
2023/01/19 05:32:42;;;;;;;;;;;;;;;25.25;52.73;95846.81;625986;226;67146;-67
2023/01/19 05:35:12;;;;;;;;;;;;;;;25.26;52.28;95864.52;625922;226;67382;-67
2023/01/19 05:37:39;;;;;;;;;;;;;;;25.25;51.84;95849.50;625903;226;65296;-68
2023/01/19 05:40:07;;;;;;;;;;;;;;;25.26;52.66;95875.27;625902;226;67168;-68
2023/01/19 05:42:35;;;;;;;;;;;;;;;25.25;53.33;95887.15;625928;226;67076;-68
2023/01/19 05:45:03;;;;;;;;;;;;;;;25.23;52.99;95855.20;625970;226;62987;-68
2023/01/19 05:47:31;;;;;;;;;;;;;;;25.24;53.79;95872.14;625961;226;64664;-68
2023/01/19 05:49:59;;;;;;;;;;;;;;;25.23;52.86;95881.30;625905;226;64862;-68
2023/01/19 05:52:26;;;;;;;;;;;;;;;25.24;53.24;95861.39;625962;226;62981;-68
2023/01/19 05:54:54;;;;;;;;;;;;;;;25.24;53.46;95872.14;625899;226;68220;-68
2023/01/19 05:57:22;;;;;;;;;;;;;;;25.24;53.11;95870.23;625961;226;67119;-68
2023/01/19 05:59:49;;;;;;;;;;;;;;;25.25;52.45;95868.33;625911;226;64971;-68
2023/01/19 06:02:17;;;;;;;;;;;;;;;25.24;53.45;95856.79;625933;226;67437;-68
2023/01/19 06:04:44;;;;;;;;;;;;;;;25.24;53.24;95875.61;625917;226;67096;-68
2023/01/19 06:07:12;;;;;;;;;;;;;;;25.24;54.91;95880.98;625921;226;63125;-68
2023/01/19 06:09:39;;;;;;;;;;;;;;;25.25;54.00;95887.15;625977;226;64890;-68
2023/01/19 06:12:07;;;;;;;;;;;;;;;25.24;54.60;95880.20;625926;226;64928;-68
2023/01/19 06:14:36;;;;;;;;;;;;;;;25.24;54.41;95901.72;625928;226;62966;-68
2023/01/19 06:17:05;;;;;;;;;;;;;;;25.25;54.79;95905.97;625913;226;64981;-68
2023/01/19 06:19:33;;;;;;;;;;;;;;;25.25;54.80;95905.97;625811;226;67088;-68
2023/01/19 06:22:01;;;;;;;;;;;;;;;25.25;52.98;95900.59;625899;226;65003;-67
2023/01/19 06:24:29;;;;;;;;;;;;;;;25.25;55.44;95896.00;625389;226;64988;-67
2023/01/19 06:26:56;;;;;;;;;;;;;;;25.25;54.51;95911.34;624683;226;67073;-68
2023/01/19 06:29:24;;;;;;;;;;;;;;;25.24;53.99;95915.16;625821;226;64917;-67
2023/01/19 06:31:52;;;;;;;;;;;;;;;25.25;53.37;95898.69;625918;226;67037;-67
2023/01/19 06:34:19;;;;;;;;;;;;;;;25.26;53.30;95902.16;625896;226;67019;-67
2023/01/19 06:36:47;;;;;;;;;;;;;;;25.26;53.48;95888.71;625970;226;64928;-67
2023/01/19 06:39:14;;;;;;;;;;;;;;;25.27;54.05;95898.38;625928;226;67228;-67
2023/01/19 06:41:42;;;;;;;;;;;;;;;25.28;53.93;95909.91;625921;226;66836;-67
2023/01/19 06:44:11;;;;;;;;;;;;;;;25.27;54.46;95917.20;625715;226;44752;-68
2023/01/19 06:46:38;;;;;;;;;;;;;;;25.28;55.34;95910.69;625951;226;67295;-68
2023/01/19 06:49:06;;;;;;;;;;;;;;;25.28;54.45;95899.94;625926;226;67336;-67
2023/01/19 06:51:34;;;;;;;;;;;;;;;25.29;52.71;95920.36;625935;226;62880;-68
2023/01/19 06:54:04;;;;;;;;;;;;;;;25.30;52.01;95911.16;625821;226;64991;-67
2023/01/19 06:56:31;;;;;;;;;;;;;;;25.31;54.11;95901.97;625797;226;67034;-67
2023/01/19 06:58:59;;;;;;;;;;;;;;;25.33;53.06;95901.66;625936;226;65024;-68
2023/01/19 07:01:27;;;;;;;;;;;;;;;25.34;53.44;95916.67;625167;226;67192;-67
2023/01/19 07:03:54;;;;;;;;;;;;;;;25.35;53.76;95888.69;624875;226;67154;-67
2023/01/19 07:06:22;;;;;;;;;;;;;;;25.35;53.22;95889.47;625529;226;64904;-67
2023/01/19 07:08:49;;;;;;;;;;;;;;;25.37;54.00;95913.33;625418;226;64740;-67
2023/01/19 07:11:17;;;;;;;;;;;;;;;25.37;54.20;95906.07;625914;226;66839;-67
2023/01/19 07:13:50;;;;;;;;;;;;;;;25.39;55.18;95922.64;625807;226;65011;-66
2023/01/19 07:16:13;;;;;;;;;;;;;;;25.41;53.72;95898.91;624895;226;67508;-66
2023/01/19 07:18:41;;;;;;;;;;;;;;;25.42;51.92;95883.55;625851;226;68404;-68
2023/01/19 07:21:08;;;;;;;;;;;;;;;25.44;53.32;95890.19;625907;226;64982;-67
2023/01/19 07:23:37;;;;;;;;;;;;;;;25.46;51.67;95906.80;625745;226;67166;-67
2023/01/19 07:26:04;;;;;;;;;;;;;;;25.47;54.37;95868.01;625475;226;64955;-68
2023/01/19 07:28:32;;;;;;;;;;;;;;;25.49;54.29;95888.44;625486;227;62970;-68
2023/01/19 07:30:59;;;;;;;;;;;;;;;25.49;55.74;95883.83;625449;227;64847;-68
2023/01/19 07:33:27;;;;;;;;;;;;;;;25.51;53.88;95870.85;625502;227;64836;-69
2023/01/19 07:35:55;;;;;;;;;;;;;;;25.52;54.51;95848.20;625491;227;65098;-68
2023/01/19 07:38:23;;;;;;;;;;;;;;;25.52;53.36;95890.47;623562;227;64915;-67
2023/01/19 07:40:50;;;;;;;;;;;;;;;25.56;52.96;95861.78;622160;228;66864;-67
2023/01/19 07:43:18;;;;;;;;;;;;;;;25.56;53.13;95873.33;622361;228;65018;-68
2023/01/19 07:45:46;;;;;;;;;;;;;;;25.58;52.81;95881.86;622324;228;65226;-67
2023/01/19 07:48:15;;;;;;;;;;;;;;;25.61;54.08;95870.44;622365;228;64931;-68
2023/01/19 07:50:43;;;;;;;;;;;;;;;25.63;51.71;95878.19;622391;228;65071;-67
2023/01/19 07:53:11;;;;;;;;;;;;;;;25.65;48.56;95854.45;622357;228;66997;-68
2023/01/19 07:55:39;;;;;;;;;;;;;;;25.68;48.86;95864.55;622355;228;65368;-68
2023/01/19 07:58:08;;;;;;;;;;;;;;;25.69;48.08;95839.20;620014;228;63051;-65
2023/01/19 08:00:36;;;;;;;;;;;;;;;25.69;46.60;95839.20;620251;228;65007;-67
2023/01/19 08:03:07;;;;;;;;;;;;;;;25.72;49.88;95835.07;622345;228;67390;-68
2023/01/19 08:05:37;;;;;;;;;;;;;;;25.73;54.28;95833.94;622139;228;46377;-69
2023/01/19 08:08:06;;;;;;;;;;;;;;;25.71;51.75;95820.84;622216;228;65319;-70
2023/01/19 08:10:33;;;;;;;;;;;;;;;25.73;51.66;95844.70;622451;228;64951;-70
2023/01/19 08:13:01;;;;;;;;;;;;;;;25.75;51.31;95858.62;622334;228;65057;-73
2023/01/19 08:15:30;;;;;;;;;;;;;;;25.75;51.93;95842.48;622125;228;67367;-67
2023/01/19 08:17:59;;;;;;;;;;;;;;;25.75;53.78;95848.64;622396;228;64445;-68
2023/01/19 08:20:28;;;;;;;;;;;;;;;25.77;51.08;95851.80;622076;228;63093;-68
2023/01/19 08:22:59;;;;;;;;;;;;;;;25.78;51.93;95864.16;622418;228;66813;-67
2023/01/19 08:25:28;;;;;;;;;;;;;;;25.79;50.18;95854.95;622413;228;64542;-68
2023/01/19 08:27:56;;;;;;;;;;;;;;;25.80;51.00;95844.97;622224;228;62914;-68
2023/01/19 08:30:25;;;;;;;;;;;;;;;25.79;50.32;95844.19;622412;228;65173;-70
2023/01/19 08:32:56;;;;;;;;;;;;;;;25.81;52.60;95854.61;622408;228;66802;-69
2023/01/19 08:35:23;;;;;;;;;;;;;;;25.81;51.90;95836.58;621465;228;67261;-68
2023/01/19 08:37:50;;;;;;;;;;;;;;;25.81;52.23;95804.28;619468;228;64747;-69
2023/01/19 08:40:18;;;;;;;;;;;;;;;25.81;52.85;95822.31;621078;228;64658;-69
2023/01/19 08:42:46;;;;;;;;;;;;;;;25.82;53.53;95840.05;622701;228;64871;-69
2023/01/19 08:45:13;;;;;;;;;;;;;;;25.83;51.74;95822.78;622747;228;67317;-68
2023/01/19 08:47:40;;;;;;;;;;;;;;;25.84;53.12;95830.56;620153;228;64889;-69
2023/01/19 08:50:09;;;;;;;;;;;;;;;25.84;52.19;95814.41;621933;228;65003;-69
2023/01/19 08:52:37;;;;;;;;;;;;;;;25.85;51.72;95832.13;622341;228;67149;-69
2023/01/19 08:55:05;;;;;;;;;;;;;;;25.86;51.23;95806.80;622304;228;67009;-63
2023/01/19 08:57:32;;;;;;;;;;;;;;;25.88;47.67;95822.61;622350;228;65188;-70
2023/01/19 08:59:59;;;;;;;;;;;;;;;25.93;44.05;95835.08;622410;228;67228;-70
2023/01/19 09:02:27;;;;;;;;;;;;;;;25.97;51.15;95817.13;622342;228;64924;-72
2023/01/19 09:04:54;;;;;;;;;;;;;;;25.97;50.39;95833.28;622359;228;62664;-71
2023/01/19 09:07:22;;;;;;;;;;;;;;;25.96;52.78;95826.34;622407;228;67332;-72
2023/01/19 09:09:49;;;;;;;;;;;;;;;25.96;50.17;95808.28;622415;228;66805;-69
2023/01/19 09:12:17;;;;;;;;;;;;;;;25.96;54.13;95816.35;622368;228;65051;-69
2023/01/19 09:14:44;;;;;;;;;;;;;;;25.96;52.97;95829.81;622378;228;67266;-69
2023/01/19 09:17:13;;;;;;;;;;;;;;;25.99;46.93;95828.36;622254;228;67335;-69
2023/01/19 09:19:41;;;;;;;;;;;;;;;26.02;46.44;95830.39;622428;228;62892;-69
2023/01/19 09:22:08;;;;;;;;;;;;;;;26.03;47.74;95838.14;622419;228;67257;-69
2023/01/19 09:24:36;;;;;;;;;;;;;;;26.05;48.68;95830.50;622404;228;67031;-68
2023/01/19 09:27:03;;;;;;;;;;;;;;;26.07;50.04;95836.34;622415;228;64970;-70
2023/01/19 09:29:32;;;;;;;;;;;;;;;26.07;51.39;95865.96;622400;228;64915;-70
2023/01/19 09:31:59;;;;;;;;;;;;;;;26.09;51.86;95841.41;622335;228;67032;-68
2023/01/19 09:34:27;;;;;;;;;;;;;;;26.11;46.43;95858.03;622439;228;64922;-68
2023/01/19 09:36:54;;;;;;;;;;;;;;;26.12;49.31;95857.68;622427;228;66941;-68
2023/01/19 09:39:22;;;;;;;;;;;;;;;26.12;47.18;95878.44;622379;228;67089;-68
2023/01/19 09:41:52;;;;;;;;;;;;;;;26.13;49.70;95856.55;622210;228;65050;-69
2023/01/19 09:44:21;;;;;;;;;;;;;;;26.15;47.69;95877.77;622205;228;67457;-69
2023/01/19 09:46:49;;;;;;;;;;;;;;;26.16;49.04;95863.18;622144;228;64863;-68
2023/01/19 09:49:20;;;;;;;;;;;;;;;26.16;51.06;95844.33;622233;228;42385;-69
2023/01/19 09:51:49;;;;;;;;;;;;;;;26.15;49.59;95852.76;621575;228;67223;-69
2023/01/19 09:54:24;;;;;;;;;;;;;;;26.16;51.42;95847.02;622344;228;66938;-69
2023/01/19 09:56:53;;;;;;;;;;;;;;;26.16;50.77;95835.47;622423;228;62952;-69
2023/01/19 09:59:22;;;;;;;;;;;;;;;26.17;46.93;95820.91;622391;228;67209;-69
2023/01/19 10:01:51;;;;;;;;;;;;;;;26.18;49.30;95819.77;622315;228;67057;-71
2023/01/19 10:04:29;;;;;;;;;;;;;;;26.18;46.93;95796.32;622093;228;62765;-68
2023/01/19 10:07:01;;;;;;;;;;;;;;;26.20;50.08;95815.63;622068;228;67250;-69
2023/01/19 10:09:32;;;;;;;;;;;;;;;26.20;49.40;95801.39;622212;228;64957;-68
2023/01/19 10:12:01;;;;;;;;;;;;;;;26.20;46.64;95791.39;622364;228;65245;-67
2023/01/19 10:14:33;;;;;;;;;;;;;;;26.22;49.45;95808.02;622298;227;67254;-68
2023/01/19 10:17:11;;;;;;;;;;;;;;;26.21;50.42;95806.42;622237;227;67065;-68
2023/01/19 10:19:40;;;;;;;;;;;;;;;26.21;50.73;95790.27;622138;228;63801;-67
2023/01/19 10:22:09;;;;;;;;;;;;;;;26.23;47.45;95809.58;622330;227;67285;-68
2023/01/19 10:24:38;;;;;;;;;;;;;;;26.24;45.74;95799.58;622113;228;66645;-68
2023/01/19 10:27:07;;;;;;;;;;;;;;;26.25;49.33;95776.94;622395;228;65100;-68
2023/01/19 10:29:36;;;;;;;;;;;;;;;26.23;49.22;95809.58;622110;228;67284;-68
2023/01/19 10:32:05;;;;;;;;;;;;;;;26.23;46.73;95793.42;622407;228;67301;-68
2023/01/19 10:34:32;;;;;;;;;;;;;;;26.25;48.51;95793.87;622462;228;62981;-70
2023/01/19 10:37:02;;;;;;;;;;;;;;;26.24;49.66;95784.20;622337;226;67409;-70
2023/01/19 10:39:29;;;;;;;;;;;;;;;26.24;50.25;95792.28;621338;228;66922;-69
2023/01/19 10:41:58;;;;;;;;;;;;;;;26.23;49.38;95790.73;621838;228;64975;-72
2023/01/19 10:44:27;;;;;;;;;;;;;;;26.22;51.19;95786.47;621398;228;63986;-73
2023/01/19 10:46:56;;;;;;;;;;;;;;;26.21;51.72;95781.41;622067;228;66866;-70
2023/01/19 10:49:31;;;;;;;;;;;;;;;26.21;51.09;95770.64;622113;228;62769;-69
2023/01/19 10:51:59;;;;;;;;;;;;;;;26.20;52.12;95763.69;621988;228;66898;-68
2023/01/19 10:54:28;;;;;;;;;;;;;;;26.21;50.87;95776.02;622063;228;67101;-68
2023/01/19 10:56:57;;;;;;;;;;;;;;;26.20;49.86;95788.70;622182;228;64990;-69
2023/01/19 10:59:40;;;;;;;;;;;;;;;26.20;49.18;95796.78;622380;228;47148;-69
2023/01/19 11:02:21;;;;;;;;;;;;;;;26.20;52.77;95775.23;622425;228;67032;-70
2023/01/19 11:04:51;;;;;;;;;;;;;;;26.21;51.96;95778.71;622396;228;65133;-69
2023/01/19 11:07:20;;;;;;;;;;;;;;;26.20;50.49;95782.54;622375;228;65090;-68
2023/01/19 11:09:48;;;;;;;;;;;;;;;26.20;50.90;95771.77;622386;228;67119;-68
2023/01/19 11:12:20;;;;;;;;;;;;;;;26.19;51.94;95762.91;622378;228;65062;-68
2023/01/19 11:14:48;;;;;;;;;;;;;;;26.20;51.81;95771.77;622277;228;67184;-68
2023/01/19 11:17:20;;;;;;;;;;;;;;;26.19;52.21;95773.68;622184;228;67176;-68
2023/01/19 11:19:58;;;;;;;;;;;;;;;26.19;52.17;95792.53;622370;228;62856;-68
2023/01/19 11:22:31;;;;;;;;;;;;;;;26.19;51.19;95743.25;622381;228;67290;-68
2023/01/19 11:25:00;;;;;;;;;;;;;;;26.20;51.12;95782.54;620897;228;64880;-67
2023/01/19 11:27:30;;;;;;;;;;;;;;;26.20;50.36;95713.30;622159;228;46504;-66
2023/01/19 11:30:09;;;;;;;;;;;;;;;26.20;50.54;95736.77;620842;228;67221;-67
2023/01/19 11:32:36;;;;;;;;;;;;;;;26.19;51.43;95706.36;619352;228;67170;-67
2023/01/19 11:35:06;;;;;;;;;;;;;;;26.20;51.17;95732.16;619606;229;65033;-67
2023/01/19 11:37:33;;;;;;;;;;;;;;;26.20;50.62;95734.84;615741;228;67044;-67
2023/01/19 11:40:03;;;;;;;;;;;;;;;26.20;51.23;95717.91;617627;229;66802;-68
2023/01/19 11:42:32;;;;;;;;;;;;;;;26.20;51.13;95701.75;617595;229;65157;-68
2023/01/19 11:45:16;;;;;;;;;;;;;;;26.20;50.78;95740.23;617576;229;65006;-68
2023/01/19 11:47:45;;;;;;;;;;;;;;;26.21;51.97;95706.79;617581;229;65225;-68
2023/01/19 11:50:14;;;;;;;;;;;;;;;26.20;49.17;95718.69;617660;229;64944;-67
2023/01/19 11:52:43;;;;;;;;;;;;;;;26.20;51.42;95701.75;617638;229;65098;-70
2023/01/19 11:55:16;;;;;;;;;;;;;;;26.20;49.90;95716.00;617558;229;64878;-68
2023/01/19 11:57:45;;;;;;;;;;;;;;;26.21;49.30;95711.39;617632;229;63789;-68
2023/01/19 12:00:30;;;;;;;;;;;;;;;26.19;50.87;95733.28;617677;229;67154;-67
2023/01/19 12:02:58;;;;;;;;;;;;;;;26.21;52.65;95749.88;617552;228;67113;-67
2023/01/19 12:05:27;;;;;;;;;;;;;;;26.21;51.67;95741.80;617641;228;62998;-67
2023/01/19 12:07:55;;;;;;;;;;;;;;;26.20;52.43;95740.23;617598;229;64836;-67
2023/01/19 12:10:27;;;;;;;;;;;;;;;26.18;51.31;95753.23;617639;229;64973;-66
2023/01/19 12:12:56;;;;;;;;;;;;;;;26.18;50.51;95728.23;617635;229;62941;-67
2023/01/19 12:15:40;;;;;;;;;;;;;;;26.17;50.22;95740.91;617536;229;67469;-66
2023/01/19 12:18:09;;;;;;;;;;;;;;;26.18;50.88;95736.30;617655;229;67781;-66
2023/01/19 12:20:47;;;;;;;;;;;;;;;26.17;51.30;95729.36;617586;228;64895;-67
2023/01/19 12:23:19;;;;;;;;;;;;;;;26.16;50.64;95698.93;617518;229;64845;-67
2023/01/19 12:25:48;;;;;;;;;;;;;;;26.15;49.65;95710.83;617648;229;66966;-66
2023/01/19 12:28:16;;;;;;;;;;;;;;;26.15;49.70;95683.91;617530;228;65125;-66
2023/01/19 12:30:44;;;;;;;;;;;;;;;26.15;50.54;95694.67;617600;229;63630;-67
2023/01/19 12:33:32;;;;;;;;;;;;;;;26.16;50.36;95722.38;617697;229;66829;-67
2023/01/19 12:36:01;;;;;;;;;;;;;;;26.16;49.18;95727.77;617653;229;63712;-68
2023/01/19 12:38:42;;;;;;;;;;;;;;;26.16;48.67;95723.16;618276;227;66923;-67
2023/01/19 12:41:17;;;;;;;;;;;;;;;26.17;51.20;95748.20;618710;227;64618;-67
2023/01/19 12:43:44;;;;;;;;;;;;;;;26.17;50.00;95734.74;618699;227;61934;-68
2023/01/19 12:46:26;;;;;;;;;;;;;;;26.18;51.28;95741.69;618770;229;66810;-68
2023/01/19 12:48:53;;;;;;;;;;;;;;;26.17;50.33;95740.13;618738;228;66797;-69
2023/01/19 12:51:25;;;;;;;;;;;;;;;26.17;51.12;95746.30;618681;229;65066;-69
2023/01/19 12:53:58;;;;;;;;;;;;;;;26.18;51.04;95739.78;618774;229;64668;-69
2023/01/19 12:56:33;;;;;;;;;;;;;;;26.20;50.61;95755.61;618802;229;64698;-67
2023/01/19 12:59:02;;;;;;;;;;;;;;;26.19;50.83;95746.75;618502;228;65199;-68
2023/01/19 13:01:29;;;;;;;;;;;;;;;26.20;50.58;95745.62;618688;229;65038;-67
2023/01/19 13:03:58;;;;;;;;;;;;;;;26.21;48.30;95759.86;618777;227;67142;-71